createdAt,value
2018-02-15T00:01:20.888Z,101980.29
2018-02-15T00:03:48.503Z,101978.42
2018-02-15T00:06:16.175Z,101974.47
2018-02-15T00:08:43.724Z,101978.55
2018-02-15T00:11:11.388Z,101974.48
2018-02-15T00:13:39.052Z,101981.84
2018-02-15T00:16:06.712Z,101978.76
2018-02-15T00:18:34.381Z,101978.76
2018-02-15T00:21:02.039Z,101982.91
2018-02-15T00:23:29.714Z,101982.59
2018-02-15T00:25:57.262Z,101988.84
2018-02-15T00:28:24.820Z,101980.08
2018-02-15T00:30:52.479Z,101983.16
2018-02-15T00:33:20.147Z,101981.64
2018-02-15T00:35:47.709Z,101974.72
2018-02-15T00:38:15.260Z,101974.81
2018-02-15T00:40:42.824Z,101974.84
2018-02-15T00:43:10.490Z,101971.20
2018-02-15T00:45:38.161Z,101972.42
2018-02-15T00:48:05.816Z,101974.07
2018-02-15T00:50:33.368Z,101971.95
2018-02-15T00:53:00.918Z,101971.89
2018-02-15T00:55:28.455Z,101969.47
2018-02-15T00:57:56.012Z,101965.39
2018-02-15T01:00:23.556Z,101973.39
2018-02-15T01:02:51.107Z,101971.33
2018-02-15T01:05:18.652Z,101971.94
2018-02-15T01:07:46.199Z,101977.02
2018-02-15T01:10:13.850Z,101974.56
2018-02-15T01:12:41.523Z,101973.07
2018-02-15T01:15:09.070Z,101961.89
2018-02-15T01:17:36.626Z,101967.33
2018-02-15T01:20:04.186Z,101969.89
2018-02-15T01:22:31.742Z,101970.75
2018-02-15T01:24:59.288Z,101975.18
2018-02-15T01:27:26.882Z,101980.29
2018-02-15T01:29:54.432Z,101975.56
2018-02-15T01:32:22.002Z,101966.69
2018-02-15T01:34:49.674Z,101975.26
2018-02-15T01:37:17.325Z,101972.67
2018-02-15T01:39:44.999Z,101967.92
2018-02-15T01:42:12.650Z,101965.82
2018-02-15T01:44:40.202Z,101971.23
2018-02-15T01:47:07.966Z,101956.19
2018-02-15T01:49:41.257Z,101953.60
2018-02-15T01:52:08.828Z,101960.14
2018-02-15T01:54:36.379Z,101952.73
2018-02-15T01:57:03.931Z,101952.17
2018-02-15T01:59:31.520Z,101941.65
2018-02-15T02:01:59.076Z,101934.40
2018-02-15T02:04:26.627Z,101934.89
2018-02-15T02:06:54.181Z,101931.70
2018-02-15T02:09:21.849Z,101936.83
2018-02-15T02:11:49.400Z,101936.95
2018-02-15T02:14:16.954Z,101941.23
2018-02-15T02:16:44.513Z,101945.02
2018-02-15T02:19:12.097Z,101936.72
2018-02-15T02:21:39.658Z,101936.91
2018-02-15T02:24:07.310Z,101938.58
2018-02-15T02:26:34.870Z,101946.91
2018-02-15T02:29:02.417Z,101944.61
2018-02-15T02:31:29.980Z,101944.95
2018-02-15T02:33:57.549Z,101955.23
2018-02-15T02:36:25.099Z,101959.53
2018-02-15T02:38:52.681Z,101962.58
2018-02-15T02:41:20.229Z,101965.14
2018-02-15T02:43:47.891Z,101963.43
2018-02-15T02:46:15.561Z,101965.87
2018-02-15T02:48:43.112Z,101960.69
2018-02-15T02:51:10.741Z,101963.50
2018-02-15T02:53:38.301Z,101954.34
2018-02-15T02:56:05.908Z,101952.47
2018-02-15T02:58:33.475Z,101942.52
2018-02-15T03:01:01.125Z,101938.75
2018-02-15T03:03:28.796Z,101937.42
2018-02-15T03:05:56.348Z,101931.84
2018-02-15T03:08:24.009Z,101930.77
2018-02-15T03:10:51.568Z,101928.13
2018-02-15T03:13:19.246Z,101923.26
2018-02-15T03:15:46.813Z,101917.52
2018-02-15T03:18:14.364Z,101911.20
2018-02-15T03:20:41.916Z,101910.55
2018-02-15T03:23:09.588Z,101914.45
2018-02-15T03:25:37.236Z,101905.39
2018-02-15T03:28:04.772Z,101902.62
2018-02-15T03:30:32.345Z,101894.36
2018-02-15T03:32:59.905Z,101897.17
2018-02-15T03:35:27.453Z,101896.98
2018-02-15T03:37:55.008Z,101889.28
2018-02-15T03:40:22.594Z,101885.16
2018-02-15T03:42:50.264Z,101893.03
2018-02-15T03:45:17.821Z,101893.11
2018-02-15T03:47:45.491Z,101896.22
2018-02-15T03:50:13.068Z,101892.95
2018-02-15T03:52:40.717Z,101889.05
2018-02-15T03:55:08.380Z,101889.98
2018-02-15T03:57:36.040Z,101886.58
2018-02-15T04:00:03.607Z,101879.90
2018-02-15T04:02:31.164Z,101871.38
2018-02-15T04:04:58.728Z,101875.82
2018-02-15T04:07:26.388Z,101881.64
2018-02-15T04:09:53.949Z,101879.34
2018-02-15T04:12:21.828Z,101881.23
2018-02-15T04:14:49.397Z,101893.65
2018-02-15T04:17:17.027Z,101891.81
2018-02-15T04:19:44.708Z,101885.80
2018-02-15T04:22:12.365Z,101884.83
2018-02-15T04:24:39.925Z,101879.34
2018-02-15T04:27:07.500Z,101891.37
2018-02-15T04:29:35.134Z,101894.62
2018-02-15T04:32:02.732Z,101892.80
2018-02-15T04:34:30.312Z,101886.42
2018-02-15T04:36:57.915Z,101884.55
2018-02-15T04:39:25.613Z,101880.42
2018-02-15T04:41:53.168Z,101883.95
2018-02-15T04:44:20.748Z,101882.16
2018-02-15T04:46:48.307Z,101891.05
2018-02-15T04:49:15.849Z,101896.14
2018-02-15T04:51:43.400Z,101895.31
2018-02-15T04:54:10.950Z,101889.31
2018-02-15T04:56:38.495Z,101894.62
2018-02-15T04:59:06.044Z,101900.03
2018-02-15T05:01:33.601Z,101902.42
2018-02-15T05:04:01.149Z,101897.59
2018-02-15T05:06:28.709Z,101898.40
2018-02-15T05:08:56.279Z,101894.31
2018-02-15T05:11:23.819Z,101891.62
2018-02-15T05:13:51.372Z,101892.61
2018-02-15T05:16:18.924Z,101891.25
2018-02-15T05:18:46.549Z,101890.48
2018-02-15T05:21:14.104Z,101886.33
2018-02-15T05:23:41.652Z,101891.13
2018-02-15T05:26:09.216Z,101883.20
2018-02-15T05:28:36.765Z,101887.14
2018-02-15T05:31:04.321Z,101867.42
2018-02-15T05:33:31.867Z,101875.64
2018-02-15T05:35:59.428Z,101876.34
2018-02-15T05:38:26.977Z,101862.61
2018-02-15T05:40:54.553Z,101861.92
2018-02-15T05:43:22.259Z,101881.56
2018-02-15T05:45:49.820Z,101864.41
2018-02-15T05:48:17.380Z,101865.20
2018-02-15T05:50:45.032Z,101859.95
2018-02-15T05:53:12.585Z,101867.22
2018-02-15T05:55:40.136Z,101860.81
2018-02-15T05:58:07.706Z,101859.89
2018-02-15T06:00:35.251Z,101863.45
2018-02-15T06:03:02.820Z,101853.94
2018-02-15T06:05:30.487Z,101853.30
2018-02-15T06:07:58.155Z,101850.98
2018-02-15T06:10:25.696Z,101850.34
2018-02-15T06:12:53.268Z,101850.14
2018-02-15T06:15:21.000Z,101855.12
2018-02-15T06:17:48.544Z,101846.59
2018-02-15T06:20:16.393Z,101843.87
2018-02-15T06:22:44.337Z,101839.82
2018-02-15T06:25:12.208Z,101840.48
2018-02-15T06:27:40.054Z,101835.01
2018-02-15T06:30:07.940Z,101835.28
2018-02-15T06:32:35.722Z,101835.02
2018-02-15T06:35:03.656Z,101833.27
2018-02-15T06:37:31.543Z,101833.21
2018-02-15T06:39:59.426Z,101833.66
2018-02-15T06:42:27.276Z,101831.47
2018-02-15T06:44:55.122Z,101837.30
2018-02-15T06:47:22.908Z,101826.77
2018-02-15T06:49:50.697Z,101833.50
2018-02-15T06:52:18.534Z,101833.66
2018-02-15T06:54:46.407Z,101840.70
2018-02-15T06:57:14.345Z,101831.50
2018-02-15T06:59:42.170Z,101841.58
2018-02-15T07:02:10.010Z,101826.57
2018-02-15T07:04:37.870Z,101812.43
2018-02-15T07:07:05.753Z,101819.19
2018-02-15T07:09:33.610Z,101824.53
2018-02-15T07:12:02.399Z,101831.84
2018-02-15T07:14:30.194Z,101837.07
2018-02-15T07:16:58.033Z,101846.23
2018-02-15T07:19:25.899Z,101834.33
2018-02-15T07:21:53.766Z,101836.36
2018-02-15T07:24:21.635Z,101833.66
2018-02-15T07:26:49.427Z,101839.89
2018-02-15T07:29:17.263Z,101840.45
2018-02-15T07:31:45.235Z,101827.41
2018-02-15T07:34:13.028Z,101821.58
2018-02-15T07:36:40.867Z,101824.03
2018-02-15T07:39:08.713Z,101820.79
2018-02-15T07:41:36.586Z,101811.17
2018-02-15T07:44:04.468Z,101806.56
2018-02-15T07:46:32.336Z,101817.24
2018-02-15T07:49:00.184Z,101824.92
2018-02-15T07:51:28.069Z,101806.44
2018-02-15T07:53:55.860Z,101797.59
2018-02-15T07:56:23.703Z,101804.44
2018-02-15T07:58:51.570Z,101790.52
2018-02-15T08:01:19.524Z,101800.14
2018-02-15T08:03:47.391Z,101796.64
2018-02-15T08:06:15.274Z,101792.27
2018-02-15T08:08:43.059Z,101786.70
2018-02-15T08:11:10.869Z,101784.88
2018-02-15T08:13:38.773Z,101786.47
2018-02-15T08:16:06.568Z,101786.10
2018-02-15T08:18:34.336Z,101798.10
2018-02-15T08:21:02.171Z,101789.52
2018-02-15T08:23:30.010Z,101802.65
2018-02-15T08:25:57.801Z,101815.77
2018-02-15T08:28:25.643Z,101811.52
2018-02-15T08:30:53.434Z,101804.33
2018-02-15T08:33:21.319Z,101808.23
2018-02-15T08:35:49.271Z,101799.39
2018-02-15T08:38:17.240Z,101804.66
2018-02-15T08:40:45.085Z,101794.95
2018-02-15T08:43:12.975Z,101791.41
2018-02-15T08:45:40.845Z,101795.70
2018-02-15T08:48:08.811Z,101799.98
2018-02-15T08:50:36.699Z,101800.30
2018-02-15T08:53:04.547Z,101798.17
2018-02-15T08:55:32.413Z,101801.98
2018-02-15T08:58:00.201Z,101804.98
2018-02-15T09:00:27.963Z,101801.80
2018-02-15T09:02:55.793Z,101802.89
2018-02-15T09:05:23.679Z,101793.16
2018-02-15T09:07:51.429Z,101800.92
2018-02-15T09:10:19.310Z,101793.47
2018-02-15T09:12:47.177Z,101790.47
2018-02-15T09:15:15.008Z,101787.13
2018-02-15T09:17:42.912Z,101789.84
2018-02-15T09:20:10.707Z,101800.42
2018-02-15T09:22:38.543Z,101788.27
2018-02-15T09:25:06.335Z,101793.45
2018-02-15T09:27:34.278Z,101795.80
2018-02-15T09:30:02.218Z,101792.72
2018-02-15T09:32:30.013Z,101769.27
2018-02-15T09:34:57.879Z,101783.20
2018-02-15T09:37:25.725Z,101771.06
2018-02-15T09:39:53.619Z,101770.44
2018-02-15T09:42:21.462Z,101777.73
2018-02-15T09:44:50.066Z,101764.00
2018-02-15T09:47:17.939Z,101758.41
2018-02-15T09:49:45.762Z,101762.91
2018-02-15T09:52:13.565Z,101773.17
2018-02-15T09:54:41.433Z,101786.94
2018-02-15T09:57:09.201Z,101790.35
2018-02-15T09:59:37.066Z,101785.72
2018-02-15T10:02:04.903Z,101785.22
2018-02-15T10:04:32.804Z,101767.77
2018-02-15T10:07:00.670Z,101756.91
2018-02-15T10:09:28.539Z,101748.95
2018-02-15T10:11:56.409Z,101752.95
2018-02-15T10:14:24.273Z,101758.87
2018-02-15T10:16:52.118Z,101766.13
2018-02-15T10:19:20.007Z,101763.13
2018-02-15T10:21:47.856Z,101752.50
2018-02-15T10:24:15.743Z,101760.03
2018-02-15T10:26:43.710Z,101748.97
2018-02-15T10:29:11.577Z,101736.16
2018-02-15T10:31:39.436Z,101729.84
2018-02-15T10:34:07.423Z,101740.72
2018-02-15T10:36:35.285Z,101727.96
2018-02-15T10:39:03.096Z,101724.78
2018-02-15T10:41:30.810Z,101724.57
2018-02-15T10:43:58.531Z,101733.01
2018-02-15T10:46:26.248Z,101722.12
2018-02-15T10:48:53.967Z,101731.69
2018-02-15T10:51:21.688Z,101725.20
2018-02-15T10:53:49.538Z,101735.61
2018-02-15T10:56:18.323Z,101723.09
2018-02-15T10:58:46.278Z,101722.11
2018-02-15T11:01:19.693Z,101713.60
2018-02-15T11:06:49.320Z,101693.97
2018-02-15T11:09:17.229Z,101690.47
2018-02-15T11:11:45.055Z,101681.48
2018-02-15T11:14:13.022Z,101672.69
2018-02-15T11:16:40.890Z,101667.42
2018-02-15T11:19:08.869Z,101676.75
2018-02-15T11:21:36.829Z,101662.59
2018-02-15T11:24:04.696Z,101662.92
2018-02-15T11:26:32.496Z,101643.97
2018-02-15T11:29:00.457Z,101644.45
2018-02-15T11:31:28.375Z,101649.66
2018-02-15T11:33:56.268Z,101644.89
2018-02-15T11:36:24.238Z,101645.52
2018-02-15T11:38:52.101Z,101641.59
2018-02-15T11:41:20.074Z,101644.19
2018-02-15T11:43:47.942Z,101644.23
2018-02-15T11:46:15.738Z,101634.23
2018-02-15T11:48:43.660Z,101619.70
2018-02-15T11:51:11.526Z,101628.81
2018-02-15T11:53:39.414Z,101608.05
2018-02-15T11:56:07.313Z,101599.16
2018-02-15T11:58:35.145Z,101596.11
2018-02-15T12:01:03.012Z,101595.72
2018-02-15T12:03:30.879Z,101585.59
2018-02-15T12:05:58.680Z,101565.34
2018-02-15T12:08:26.683Z,101577.23
2018-02-15T12:10:54.585Z,101571.98
2018-02-15T12:13:22.415Z,101564.47
2018-02-15T12:15:50.150Z,101572.06
2018-02-15T12:18:17.977Z,101557.05
2018-02-15T12:20:46.157Z,101553.92
2018-02-15T12:23:14.123Z,101543.80
2018-02-15T12:25:42.094Z,101546.47
2018-02-15T12:28:10.064Z,101562.81
2018-02-15T12:30:37.999Z,101548.23
2018-02-15T12:33:05.841Z,101550.81
2018-02-15T12:35:33.630Z,101550.84
2018-02-15T12:38:01.431Z,101546.41
2018-02-15T12:40:29.299Z,101539.27
2018-02-15T12:42:56.829Z,101530.11
2018-02-15T12:45:24.623Z,101526.58
2018-02-15T12:47:52.153Z,101519.52
2018-02-15T12:50:19.676Z,101501.86
2018-02-15T12:52:47.243Z,101524.38
2018-02-15T12:55:14.833Z,101501.43
2018-02-15T12:57:42.389Z,101501.83
2018-02-15T13:00:09.912Z,101505.84
2018-02-15T13:02:37.440Z,101501.42
2018-02-15T13:05:05.076Z,101504.95
2018-02-15T13:07:32.592Z,101492.16
2018-02-15T13:10:00.121Z,101488.19
2018-02-15T13:12:39.367Z,101497.87
2018-02-15T13:15:18.689Z,101492.16
2018-02-15T13:17:46.218Z,101490.83
2018-02-15T13:20:19.649Z,101498.77
2018-02-15T13:22:47.869Z,101505.82
2018-02-15T13:25:15.436Z,101488.63
2018-02-15T13:27:54.829Z,101488.16
2018-02-15T13:30:22.444Z,101477.13
2018-02-15T13:32:49.972Z,101473.61
2018-02-15T13:35:17.498Z,101465.66
2018-02-15T13:37:45.005Z,101464.34
2018-02-15T13:40:12.526Z,101478.03
2018-02-15T13:42:40.045Z,101472.72
2018-02-15T13:45:07.563Z,101460.35
2018-02-15T13:47:35.087Z,101460.80
2018-02-15T13:50:02.725Z,101453.73
2018-02-15T13:52:30.247Z,101459.05
2018-02-15T13:54:57.770Z,101452.84
2018-02-15T13:57:25.299Z,101444.45
2018-02-15T13:59:52.839Z,101431.64
2018-02-15T14:02:20.361Z,101428.53
2018-02-15T14:04:47.876Z,101425.02
2018-02-15T14:07:15.399Z,101420.12
2018-02-15T14:09:42.907Z,101428.52
2018-02-15T14:12:10.421Z,101428.95
2018-02-15T14:14:38.029Z,101428.97
2018-02-15T14:17:05.549Z,101432.52
2018-02-15T14:19:33.074Z,101427.66
2018-02-15T14:22:00.589Z,101428.98
2018-02-15T14:24:28.108Z,101411.73
2018-02-15T14:26:55.653Z,101413.48
2018-02-15T14:29:23.167Z,101405.11
2018-02-15T14:31:50.682Z,101399.81
2018-02-15T14:34:18.288Z,101401.55
2018-02-15T14:36:45.844Z,101398.48
2018-02-15T14:39:13.354Z,101397.55
2018-02-15T14:41:40.866Z,101400.22
2018-02-15T14:44:08.389Z,101386.06
2018-02-15T14:46:35.985Z,101386.08
2018-02-15T14:49:03.501Z,101369.28
2018-02-15T14:51:31.019Z,101374.14
2018-02-15T14:53:58.541Z,101355.17
2018-02-15T14:56:26.062Z,101364.88
2018-02-15T14:58:53.669Z,101362.22
2018-02-15T15:01:21.186Z,101354.24
2018-02-15T15:03:48.715Z,101354.70
2018-02-15T15:06:16.237Z,101349.42
2018-02-15T15:08:43.755Z,101353.39
2018-02-15T15:11:11.279Z,101350.70
2018-02-15T15:13:38.796Z,101355.60
2018-02-15T15:16:06.316Z,101355.14
2018-02-15T15:18:33.829Z,101361.78
2018-02-15T15:21:01.349Z,101353.38
2018-02-15T15:23:28.868Z,101359.58
2018-02-15T15:25:56.432Z,101355.19
2018-02-15T15:28:23.941Z,101358.70
2018-02-15T15:30:51.477Z,101362.67
2018-02-15T15:33:19.116Z,101354.74
2018-02-15T15:35:46.692Z,101358.27
2018-02-15T15:38:14.200Z,101360.05
2018-02-15T15:40:41.728Z,101353.88
2018-02-15T15:43:09.238Z,101351.20
2018-02-15T15:45:36.771Z,101357.82
2018-02-15T15:48:04.307Z,101355.19
2018-02-15T15:50:31.946Z,101354.30
2018-02-15T15:52:59.511Z,101352.95
2018-02-15T15:55:27.021Z,101351.20
2018-02-15T15:57:54.544Z,101350.76
2018-02-15T16:00:22.091Z,101349.91
2018-02-15T16:02:49.629Z,101352.08
2018-02-15T16:05:17.139Z,101368.43
2018-02-15T16:07:44.651Z,101371.95
2018-02-15T16:10:12.209Z,101365.78
2018-02-15T16:12:39.716Z,101356.48
2018-02-15T16:15:07.263Z,101349.45
2018-02-15T16:17:34.770Z,101346.80
2018-02-15T16:20:02.285Z,101355.19
2018-02-15T16:22:29.800Z,101341.93
2018-02-15T16:24:57.316Z,101341.50
2018-02-15T16:27:24.836Z,101351.67
2018-02-15T16:29:52.348Z,101356.52
2018-02-15T16:32:19.886Z,101359.16
2018-02-15T16:34:47.510Z,101355.64
2018-02-15T16:37:15.018Z,101350.34
2018-02-15T16:39:42.546Z,101344.17
2018-02-15T16:42:10.089Z,101350.34
2018-02-15T16:44:37.616Z,101353.44
2018-02-15T16:47:05.168Z,101340.18
2018-02-15T16:49:32.757Z,101342.42
2018-02-15T16:52:00.267Z,101342.81
2018-02-15T16:54:27.788Z,101334.89
2018-02-15T16:56:55.360Z,101332.70
2018-02-15T16:59:22.908Z,101330.91
2018-02-15T17:01:50.424Z,101333.56
2018-02-15T17:04:18.031Z,101336.64
2018-02-15T17:06:45.585Z,101338.41
2018-02-15T17:09:13.128Z,101334.00
2018-02-15T17:11:40.640Z,101341.97
2018-02-15T17:14:08.167Z,101339.30
2018-02-15T17:16:35.838Z,101348.59
2018-02-15T17:19:03.359Z,101332.69
2018-02-15T17:21:30.936Z,101332.27
2018-02-15T17:23:58.500Z,101324.70
2018-02-15T17:26:26.036Z,101322.53
2018-02-15T17:28:53.745Z,101324.30
2018-02-15T17:31:21.532Z,101328.27
2018-02-15T17:33:49.376Z,101332.22
2018-02-15T17:36:17.065Z,101333.98
2018-02-15T17:38:44.698Z,101341.52
2018-02-15T17:41:12.457Z,101340.62
2018-02-15T17:43:40.004Z,101339.76
2018-02-15T17:46:07.578Z,101327.41
2018-02-15T17:48:35.091Z,101333.19
2018-02-15T17:51:02.618Z,101336.31
2018-02-15T17:53:30.268Z,101330.98
2018-02-15T17:55:58.429Z,101325.25
2018-02-15T17:58:25.994Z,101330.11
2018-02-15T18:00:53.544Z,101327.04
2018-02-15T18:03:21.110Z,101337.17
2018-02-15T18:05:48.672Z,101338.08
2018-02-15T18:08:16.179Z,101331.47
2018-02-15T18:10:43.794Z,101333.67
2018-02-15T18:13:11.322Z,101334.58
2018-02-15T18:15:38.880Z,101336.33
2018-02-15T18:18:06.420Z,101321.78
2018-02-15T18:20:33.984Z,101328.37
2018-02-15T18:23:01.500Z,101315.14
2018-02-15T18:25:29.181Z,101320.88
2018-02-15T18:27:56.711Z,101327.06
2018-02-15T18:30:24.225Z,101333.69
2018-02-15T18:32:51.734Z,101320.00
2018-02-15T18:35:19.520Z,101312.50
2018-02-15T18:37:47.033Z,101314.27
2018-02-15T18:40:14.549Z,101317.80
2018-02-15T18:42:42.084Z,101312.07
2018-02-15T18:45:09.617Z,101302.34
2018-02-15T18:47:37.168Z,101301.92
2018-02-15T18:50:04.747Z,101305.88
2018-02-15T18:52:32.265Z,101301.49
2018-02-15T18:54:59.858Z,101296.61
2018-02-15T18:57:27.385Z,101286.93
2018-02-15T18:59:54.976Z,101296.61
2018-02-15T19:02:22.493Z,101300.14
2018-02-15T19:04:50.119Z,101297.95
2018-02-15T19:07:17.636Z,101297.94
2018-02-15T19:09:45.185Z,101298.37
2018-02-15T19:12:12.701Z,101297.95
2018-02-15T19:14:40.244Z,101297.08
2018-02-15T19:17:07.804Z,101301.92
2018-02-15T19:19:35.316Z,101298.41
2018-02-15T19:22:02.829Z,101293.55
2018-02-15T19:24:30.385Z,101293.54
2018-02-15T19:26:57.896Z,101288.23
2018-02-15T19:29:25.501Z,101286.94
2018-02-15T19:31:53.210Z,101282.52
2018-02-15T19:34:20.826Z,101277.66
2018-02-15T19:36:48.396Z,101283.39
2018-02-15T19:39:15.927Z,101284.28
2018-02-15T19:41:43.506Z,101281.62
2018-02-15T19:44:11.028Z,101285.15
2018-02-15T19:46:38.629Z,101282.06
2018-02-15T19:49:06.253Z,101274.59
2018-02-15T19:51:33.969Z,101272.36
2018-02-15T19:54:01.485Z,101270.61
2018-02-15T19:56:29.004Z,101263.11
2018-02-15T19:58:56.638Z,101269.74
2018-02-15T20:01:24.192Z,101261.33
2018-02-15T20:03:51.724Z,101261.79
2018-02-15T20:06:19.244Z,101259.57
2018-02-15T20:08:46.769Z,101261.33
2018-02-15T20:11:14.281Z,101259.56
2018-02-15T20:13:41.882Z,101253.42
2018-02-15T20:16:09.392Z,101252.52
2018-02-15T20:18:37.002Z,101256.92
2018-02-15T20:21:04.531Z,101256.94
2018-02-15T20:23:32.052Z,101248.11
2018-02-15T20:26:05.148Z,101254.28
2018-02-15T20:28:32.689Z,101258.69
2018-02-15T20:31:00.207Z,101253.86
2018-02-15T20:33:27.720Z,101245.92
2018-02-15T20:35:55.243Z,101246.78
2018-02-15T20:38:28.436Z,101240.61
2018-02-15T20:40:55.952Z,101248.56
2018-02-15T20:43:23.478Z,101244.13
2018-02-15T20:45:51.033Z,101250.33
2018-02-15T20:48:18.554Z,101256.92
2018-02-15T20:50:51.744Z,101263.11
2018-02-15T20:53:24.841Z,101264.44
2018-02-15T20:55:52.416Z,101267.08
2018-02-15T20:58:19.929Z,101264.00
2018-02-15T21:00:47.449Z,101267.06
2018-02-15T21:03:14.961Z,101263.10
2018-02-15T21:05:42.574Z,101267.06
2018-02-15T21:08:10.090Z,101259.14
2018-02-15T21:10:37.627Z,101260.02
2018-02-15T21:13:05.153Z,101254.28
2018-02-15T21:15:32.706Z,101249.89
2018-02-15T21:18:00.225Z,101257.83
2018-02-15T21:20:27.760Z,101255.17
2018-02-15T21:22:55.324Z,101256.92
2018-02-15T21:25:22.844Z,101252.52
2018-02-15T21:27:50.363Z,101255.19
2018-02-15T21:30:17.895Z,101248.56
2018-02-15T21:32:45.421Z,101237.52
2018-02-15T21:35:12.981Z,101238.84
2018-02-15T21:37:40.498Z,101235.77
2018-02-15T21:40:08.049Z,101233.14
2018-02-15T21:42:35.591Z,101233.58
2018-02-15T21:45:03.117Z,101232.70
2018-02-15T21:47:30.634Z,101247.23
2018-02-15T21:49:58.256Z,101246.34
2018-02-15T21:52:25.775Z,101238.43
2018-02-15T21:54:53.284Z,101250.33
2018-02-15T21:57:20.804Z,101245.04
2018-02-15T21:59:48.321Z,101243.70
2018-02-15T22:02:15.847Z,101246.37
2018-02-15T22:04:43.412Z,101253.39
2018-02-15T22:07:10.931Z,101250.77
2018-02-15T22:09:38.513Z,101261.80
2018-02-15T22:12:06.040Z,101263.13
2018-02-15T22:14:33.589Z,101258.27
2018-02-15T22:17:01.116Z,101262.68
2018-02-15T22:19:28.639Z,101259.12
2018-02-15T22:21:56.164Z,101262.21
2018-02-15T22:24:23.680Z,101261.34
2018-02-15T22:26:51.202Z,101261.35
2018-02-15T22:29:18.712Z,101267.50
2018-02-15T22:31:46.455Z,101269.72
2018-02-15T22:34:14.015Z,101261.34
2018-02-15T22:36:41.672Z,101263.98
2018-02-15T22:39:09.184Z,101260.91
2018-02-15T22:41:36.699Z,101256.50
2018-02-15T22:44:04.227Z,101253.84
2018-02-15T22:46:31.740Z,101249.02
2018-02-15T22:48:59.376Z,101255.16
2018-02-15T22:51:26.890Z,101252.08
2018-02-15T22:53:54.398Z,101241.52
2018-02-15T22:56:21.921Z,101243.72
2018-02-15T22:58:49.432Z,101244.59
2018-02-15T23:01:16.969Z,101248.57
2018-02-15T23:03:44.496Z,101249.44
2018-02-15T23:06:12.013Z,101254.28
2018-02-15T23:08:39.533Z,101245.89
2018-02-15T23:11:07.110Z,101248.13
2018-02-15T23:13:34.665Z,101249.88
2018-02-15T23:16:02.184Z,101247.22
2018-02-15T23:18:29.782Z,101246.77
2018-02-15T23:20:57.337Z,101241.48
2018-02-15T23:23:24.848Z,101238.41
2018-02-15T23:25:52.369Z,101247.23
2018-02-15T23:28:19.894Z,101245.02
2018-02-15T23:30:47.417Z,101246.34
2018-02-15T23:33:14.999Z,101248.53
2018-02-15T23:35:42.536Z,101245.02
2018-02-15T23:38:10.160Z,101241.48
2018-02-15T23:40:37.690Z,101248.53
2018-02-15T23:43:05.249Z,101245.44
2018-02-15T23:45:32.772Z,101248.98
2018-02-15T23:48:00.392Z,101252.48
2018-02-15T23:50:27.929Z,101257.80
2018-02-15T23:52:55.448Z,101257.36
2018-02-15T23:55:23.086Z,101263.95
2018-02-15T23:57:50.597Z,101264.83
